Terminal Aerodrome Forecast
Issued by NWS

Current Version | Previous Version | Graphics & Text | Print | Product List | Glossary On
Versions: 1 2 3 4 5 6 7 8 9 10 11 12 13 14 15 16 17 18 19 20 21 22 23 24 25 26 27 28
000
FTUS41 KPBZ 201700
TAFHLG
TAF
KHLG 201723Z 2018/2118 21008KT P6SM OVC100
     FM202200 20005KT P6SM -SHRA OVC050
     FM210400 22004KT 5SM -SHRA BKN025
     FM210800 25006KT P6SM VCSH BKN025=

USA.gov is the U.S. government's official web portal to all federal, state and local government web resources and services.